sensor_id;sensor_type;location;lat;lon;timestamp;P1;durP1;ratioP1;P2;durP2;ratioP2
69417;SDS011;56610;48.872;2.400;2022-10-23T00:01:24;2.08;;;1.48;;
69417;SDS011;56610;48.872;2.400;2022-10-23T00:03:53;2.75;;;1.70;;
69417;SDS011;56610;48.872;2.400;2022-10-23T00:06:21;2.35;;;1.42;;
69417;SDS011;56610;48.872;2.400;2022-10-23T00:08:47;3.58;;;1.50;;
69417;SDS011;56610;48.872;2.400;2022-10-23T00:11:14;2.67;;;1.27;;
69417;SDS011;56610;48.872;2.400;2022-10-23T00:13:41;2.90;;;1.60;;
69417;SDS011;56610;48.872;2.400;2022-10-23T00:16:07;2.38;;;1.60;;
69417;SDS011;56610;48.872;2.400;2022-10-23T00:18:33;2.50;;;1.60;;
69417;SDS011;56610;48.872;2.400;2022-10-23T00:21:00;2.35;;;1.58;;
69417;SDS011;56610;48.872;2.400;2022-10-23T00:23:26;2.45;;;1.40;;
69417;SDS011;56610;48.872;2.400;2022-10-23T00:25:51;3.42;;;1.50;;
69417;SDS011;56610;48.872;2.400;2022-10-23T00:28:17;3.35;;;1.77;;
69417;SDS011;56610;48.872;2.400;2022-10-23T00:30:43;1.80;;;1.27;;
69417;SDS011;56610;48.872;2.400;2022-10-23T00:33:08;1.95;;;1.63;;
69417;SDS011;56610;48.872;2.400;2022-10-23T00:35:38;2.88;;;1.80;;
69417;SDS011;56610;48.872;2.400;2022-10-23T00:38:04;3.10;;;1.70;;
69417;SDS011;56610;48.872;2.400;2022-10-23T00:40:30;3.40;;;1.60;;
69417;SDS011;56610;48.872;2.400;2022-10-23T00:42:55;3.63;;;1.40;;
69417;SDS011;56610;48.872;2.400;2022-10-23T00:48:17;2.15;;;1.50;;
69417;SDS011;56610;48.872;2.400;2022-10-23T00:50:43;2.67;;;1.55;;
69417;SDS011;56610;48.872;2.400;2022-10-23T00:53:10;2.97;;;1.67;;
69417;SDS011;56610;48.872;2.400;2022-10-23T00:55:37;2.73;;;1.70;;
69417;SDS011;56610;48.872;2.400;2022-10-23T00:58:09;4.78;;;1.50;;
69417;SDS011;56610;48.872;2.400;2022-10-23T01:00:48;1.52;;;1.40;;
69417;SDS011;56610;48.872;2.400;2022-10-23T01:03:16;2.67;;;1.52;;
69417;SDS011;56610;48.872;2.400;2022-10-23T01:08:27;2.00;;;1.50;;
69417;SDS011;56610;48.872;2.400;2022-10-23T01:13:53;2.20;;;1.58;;
69417;SDS011;56610;48.872;2.400;2022-10-23T01:16:38;2.33;;;1.60;;
69417;SDS011;56610;48.872;2.400;2022-10-23T01:19:26;2.50;;;1.25;;
69417;SDS011;56610;48.872;2.400;2022-10-23T01:30:00;1.80;;;1.08;;
69417;SDS011;56610;48.872;2.400;2022-10-23T01:43:43;2.63;;;1.05;;
69417;SDS011;56610;48.872;2.400;2022-10-23T01:46:14;1.67;;;1.05;;
69417;SDS011;56610;48.872;2.400;2022-10-23T01:48:42;1.45;;;0.93;;
69417;SDS011;56610;48.872;2.400;2022-10-23T01:51:12;1.33;;;0.95;;
69417;SDS011;56610;48.872;2.400;2022-10-23T01:53:39;2.10;;;0.90;;
69417;SDS011;56610;48.872;2.400;2022-10-23T01:56:09;3.35;;;0.90;;
69417;SDS011;56610;48.872;2.400;2022-10-23T01:58:36;4.25;;;1.10;;
69417;SDS011;56610;48.872;2.400;2022-10-23T02:01:06;2.60;;;1.10;;
69417;SDS011;56610;48.872;2.400;2022-10-23T02:03:32;2.45;;;1.00;;
69417;SDS011;56610;48.872;2.400;2022-10-23T02:06:00;1.10;;;1.00;;
69417;SDS011;56610;48.872;2.400;2022-10-23T02:08:26;3.22;;;0.90;;
69417;SDS011;56610;48.872;2.400;2022-10-23T02:10:58;3.40;;;1.27;;
69417;SDS011;56610;48.872;2.400;2022-10-23T02:16:20;1.35;;;1.25;;
69417;SDS011;56610;48.872;2.400;2022-10-23T02:19:07;2.97;;;1.15;;
69417;SDS011;56610;48.872;2.400;2022-10-23T02:21:38;2.85;;;1.30;;
69417;SDS011;56610;48.872;2.400;2022-10-23T02:24:14;1.65;;;1.00;;
69417;SDS011;56610;48.872;2.400;2022-10-23T02:26:51;1.98;;;1.15;;
69417;SDS011;56610;48.872;2.400;2022-10-23T02:31:49;2.10;;;1.27;;
69417;SDS011;56610;48.872;2.400;2022-10-23T02:34:15;1.60;;;1.20;;
69417;SDS011;56610;48.872;2.400;2022-10-23T02:36:40;3.10;;;1.13;;
69417;SDS011;56610;48.872;2.400;2022-10-23T02:39:07;1.30;;;1.02;;
69417;SDS011;56610;48.872;2.400;2022-10-23T02:46:52;3.55;;;1.20;;
69417;SDS011;56610;48.872;2.400;2022-10-23T02:49:47;1.90;;;1.00;;
69417;SDS011;56610;48.872;2.400;2022-10-23T02:52:28;3.30;;;1.50;;
69417;SDS011;56610;48.872;2.400;2022-10-23T03:00:30;3.70;;;1.20;;
69417;SDS011;56610;48.872;2.400;2022-10-23T03:02:58;1.60;;;1.02;;
69417;SDS011;56610;48.872;2.400;2022-10-23T03:05:43;2.78;;;1.45;;
69417;SDS011;56610;48.872;2.400;2022-10-23T03:08:09;3.03;;;1.55;;
69417;SDS011;56610;48.872;2.400;2022-10-23T03:13:02;2.35;;;1.58;;
69417;SDS011;56610;48.872;2.400;2022-10-23T03:15:28;1.88;;;1.40;;
69417;SDS011;56610;48.872;2.400;2022-10-23T03:17:54;1.98;;;1.42;;
69417;SDS011;56610;48.872;2.400;2022-10-23T03:20:19;1.85;;;1.30;;
69417;SDS011;56610;48.872;2.400;2022-10-23T03:22:45;3.38;;;1.48;;
69417;SDS011;56610;48.872;2.400;2022-10-23T03:25:10;3.20;;;1.30;;
69417;SDS011;56610;48.872;2.400;2022-10-23T03:27:36;2.22;;;1.40;;
69417;SDS011;56610;48.872;2.400;2022-10-23T03:30:02;3.55;;;1.15;;
69417;SDS011;56610;48.872;2.400;2022-10-23T03:32:28;2.38;;;1.15;;
69417;SDS011;56610;48.872;2.400;2022-10-23T03:34:54;5.65;;;1.45;;
69417;SDS011;56610;48.872;2.400;2022-10-23T03:37:20;4.25;;;1.70;;
69417;SDS011;56610;48.872;2.400;2022-10-23T03:39:46;2.58;;;1.40;;
69417;SDS011;56610;48.872;2.400;2022-10-23T03:42:11;2.08;;;1.30;;
69417;SDS011;56610;48.872;2.400;2022-10-23T03:44:37;2.72;;;1.45;;
69417;SDS011;56610;48.872;2.400;2022-10-23T03:47:02;3.20;;;1.65;;
69417;SDS011;56610;48.872;2.400;2022-10-23T03:49:28;1.75;;;1.15;;
69417;SDS011;56610;48.872;2.400;2022-10-23T03:51:54;2.83;;;1.83;;
69417;SDS011;56610;48.872;2.400;2022-10-23T03:54:23;4.07;;;1.30;;
69417;SDS011;56610;48.872;2.400;2022-10-23T03:56:50;4.63;;;1.63;;
69417;SDS011;56610;48.872;2.400;2022-10-23T03:59:16;2.40;;;1.30;;
69417;SDS011;56610;48.872;2.400;2022-10-23T04:01:42;4.13;;;1.88;;
69417;SDS011;56610;48.872;2.400;2022-10-23T04:04:07;2.55;;;1.58;;
69417;SDS011;56610;48.872;2.400;2022-10-23T04:06:33;2.97;;;1.42;;
69417;SDS011;56610;48.872;2.400;2022-10-23T04:08:59;3.80;;;1.60;;
69417;SDS011;56610;48.872;2.400;2022-10-23T04:11:25;2.58;;;1.42;;
69417;SDS011;56610;48.872;2.400;2022-10-23T04:13:50;2.47;;;1.58;;
69417;SDS011;56610;48.872;2.400;2022-10-23T04:16:16;2.70;;;1.70;;
69417;SDS011;56610;48.872;2.400;2022-10-23T04:18:42;3.83;;;1.83;;
69417;SDS011;56610;48.872;2.400;2022-10-23T04:21:08;4.78;;;1.92;;
69417;SDS011;56610;48.872;2.400;2022-10-23T04:23:34;3.10;;;1.48;;
69417;SDS011;56610;48.872;2.400;2022-10-23T04:25:59;2.50;;;1.48;;
69417;SDS011;56610;48.872;2.400;2022-10-23T04:28:25;4.00;;;1.90;;
69417;SDS011;56610;48.872;2.400;2022-10-23T04:30:51;4.55;;;2.00;;
69417;SDS011;56610;48.872;2.400;2022-10-23T04:33:17;4.35;;;1.63;;
69417;SDS011;56610;48.872;2.400;2022-10-23T04:35:43;4.15;;;1.77;;
69417;SDS011;56610;48.872;2.400;2022-10-23T04:38:08;3.30;;;1.77;;
69417;SDS011;56610;48.872;2.400;2022-10-23T04:40:34;4.80;;;2.10;;
69417;SDS011;56610;48.872;2.400;2022-10-23T04:42:59;3.33;;;1.85;;
69417;SDS011;56610;48.872;2.400;2022-10-23T04:45:25;2.45;;;1.60;;
69417;SDS011;56610;48.872;2.400;2022-10-23T04:47:51;3.05;;;1.73;;
69417;SDS011;56610;48.872;2.400;2022-10-23T04:50:20;3.85;;;1.60;;
69417;SDS011;56610;48.872;2.400;2022-10-23T04:52:46;1.55;;;1.20;;
69417;SDS011;56610;48.872;2.400;2022-10-23T04:55:12;4.13;;;1.70;;
69417;SDS011;56610;48.872;2.400;2022-10-23T04:57:38;3.38;;;1.55;;
69417;SDS011;56610;48.872;2.400;2022-10-23T05:00:05;3.33;;;1.95;;
69417;SDS011;56610;48.872;2.400;2022-10-23T05:02:33;2.53;;;1.83;;
69417;SDS011;56610;48.872;2.400;2022-10-23T05:04:59;4.13;;;2.13;;
69417;SDS011;56610;48.872;2.400;2022-10-23T05:07:24;3.97;;;2.08;;
69417;SDS011;56610;48.872;2.400;2022-10-23T05:09:50;3.83;;;1.88;;
69417;SDS011;56610;48.872;2.400;2022-10-23T05:12:15;5.63;;;2.30;;
69417;SDS011;56610;48.872;2.400;2022-10-23T05:14:41;3.47;;;2.10;;
69417;SDS011;56610;48.872;2.400;2022-10-23T05:17:08;3.60;;;1.90;;
69417;SDS011;56610;48.872;2.400;2022-10-23T05:19:40;4.00;;;2.28;;
69417;SDS011;56610;48.872;2.400;2022-10-23T05:22:09;4.78;;;2.33;;
69417;SDS011;56610;48.872;2.400;2022-10-23T05:24:36;3.65;;;2.05;;
69417;SDS011;56610;48.872;2.400;2022-10-23T05:27:01;4.85;;;2.20;;
69417;SDS011;56610;48.872;2.400;2022-10-23T05:29:27;2.92;;;1.90;;
69417;SDS011;56610;48.872;2.400;2022-10-23T05:31:53;2.85;;;1.70;;
69417;SDS011;56610;48.872;2.400;2022-10-23T05:34:21;2.72;;;2.00;;
69417;SDS011;56610;48.872;2.400;2022-10-23T05:36:49;5.15;;;2.00;;
69417;SDS011;56610;48.872;2.400;2022-10-23T05:39:16;4.72;;;2.08;;
69417;SDS011;56610;48.872;2.400;2022-10-23T05:41:42;3.88;;;2.20;;
69417;SDS011;56610;48.872;2.400;2022-10-23T05:44:07;5.15;;;2.22;;
69417;SDS011;56610;48.872;2.400;2022-10-23T05:46:33;3.05;;;2.00;;
69417;SDS011;56610;48.872;2.400;2022-10-23T05:48:58;3.90;;;2.08;;
69417;SDS011;56610;48.872;2.400;2022-10-23T05:51:24;2.97;;;1.95;;
69417;SDS011;56610;48.872;2.400;2022-10-23T05:53:50;5.03;;;2.00;;
69417;SDS011;56610;48.872;2.400;2022-10-23T05:56:17;6.73;;;2.00;;
69417;SDS011;56610;48.872;2.400;2022-10-23T05:58:43;3.60;;;2.03;;
69417;SDS011;56610;48.872;2.400;2022-10-23T06:01:10;3.15;;;1.80;;
69417;SDS011;56610;48.872;2.400;2022-10-23T06:03:37;3.75;;;1.98;;
69417;SDS011;56610;48.872;2.400;2022-10-23T06:06:04;4.25;;;1.90;;
69417;SDS011;56610;48.872;2.400;2022-10-23T06:08:31;7.35;;;2.08;;
69417;SDS011;56610;48.872;2.400;2022-10-23T06:10:57;2.28;;;1.70;;
69417;SDS011;56610;48.872;2.400;2022-10-23T06:13:29;2.92;;;2.17;;
69417;SDS011;56610;48.872;2.400;2022-10-23T06:15:54;2.42;;;1.60;;
69417;SDS011;56610;48.872;2.400;2022-10-23T06:18:20;6.28;;;2.47;;
69417;SDS011;56610;48.872;2.400;2022-10-23T06:20:45;4.18;;;2.38;;
69417;SDS011;56610;48.872;2.400;2022-10-23T06:23:11;3.83;;;2.30;;
69417;SDS011;56610;48.872;2.400;2022-10-23T06:25:36;3.08;;;1.90;;
69417;SDS011;56610;48.872;2.400;2022-10-23T06:28:02;4.40;;;2.05;;
69417;SDS011;56610;48.872;2.400;2022-10-23T06:30:27;5.38;;;2.00;;
69417;SDS011;56610;48.872;2.400;2022-10-23T06:32:53;4.03;;;1.95;;
69417;SDS011;56610;48.872;2.400;2022-10-23T06:35:19;3.13;;;2.10;;
69417;SDS011;56610;48.872;2.400;2022-10-23T06:37:44;3.78;;;2.42;;
69417;SDS011;56610;48.872;2.400;2022-10-23T06:40:10;3.42;;;2.13;;
69417;SDS011;56610;48.872;2.400;2022-10-23T06:42:35;4.35;;;2.13;;
69417;SDS011;56610;48.872;2.400;2022-10-23T06:45:01;3.42;;;2.28;;
69417;SDS011;56610;48.872;2.400;2022-10-23T06:47:27;4.60;;;2.00;;
69417;SDS011;56610;48.872;2.400;2022-10-23T06:49:52;2.78;;;1.83;;
69417;SDS011;56610;48.872;2.400;2022-10-23T06:52:18;2.22;;;1.70;;
69417;SDS011;56610;48.872;2.400;2022-10-23T06:54:43;5.90;;;2.45;;
69417;SDS011;56610;48.872;2.400;2022-10-23T06:57:09;3.97;;;2.00;;
69417;SDS011;56610;48.872;2.400;2022-10-23T06:59:34;3.47;;;1.83;;
69417;SDS011;56610;48.872;2.400;2022-10-23T07:02:00;7.65;;;2.40;;
69417;SDS011;56610;48.872;2.400;2022-10-23T07:04:26;3.30;;;2.15;;
69417;SDS011;56610;48.872;2.400;2022-10-23T07:06:54;3.03;;;2.05;;
69417;SDS011;56610;48.872;2.400;2022-10-23T07:09:21;2.75;;;2.20;;
69417;SDS011;56610;48.872;2.400;2022-10-23T07:11:47;3.08;;;2.35;;
69417;SDS011;56610;48.872;2.400;2022-10-23T07:14:12;3.28;;;2.25;;
69417;SDS011;56610;48.872;2.400;2022-10-23T07:16:38;3.42;;;2.25;;
69417;SDS011;56610;48.872;2.400;2022-10-23T07:19:04;4.72;;;3.10;;
69417;SDS011;56610;48.872;2.400;2022-10-23T07:21:31;3.50;;;2.55;;
69417;SDS011;56610;48.872;2.400;2022-10-23T07:26:24;4.22;;;2.65;;
69417;SDS011;56610;48.872;2.400;2022-10-23T07:28:50;4.13;;;2.80;;
69417;SDS011;56610;48.872;2.400;2022-10-23T07:31:19;5.82;;;2.80;;
69417;SDS011;56610;48.872;2.400;2022-10-23T07:33:49;4.47;;;2.35;;
69417;SDS011;56610;48.872;2.400;2022-10-23T07:36:15;5.78;;;2.35;;
69417;SDS011;56610;48.872;2.400;2022-10-23T07:38:41;4.72;;;2.47;;
69417;SDS011;56610;48.872;2.400;2022-10-23T07:41:07;4.85;;;2.65;;
69417;SDS011;56610;48.872;2.400;2022-10-23T07:43:32;6.47;;;2.83;;
69417;SDS011;56610;48.872;2.400;2022-10-23T07:45:59;3.70;;;2.47;;
69417;SDS011;56610;48.872;2.400;2022-10-23T07:48:25;5.45;;;4.05;;
69417;SDS011;56610;48.872;2.400;2022-10-23T07:50:51;2.88;;;2.25;;
69417;SDS011;56610;48.872;2.400;2022-10-23T07:53:22;5.38;;;2.50;;
69417;SDS011;56610;48.872;2.400;2022-10-23T07:55:59;4.55;;;2.17;;
69417;SDS011;56610;48.872;2.400;2022-10-23T07:58:27;3.70;;;1.73;;
69417;SDS011;56610;48.872;2.400;2022-10-23T08:00:57;3.42;;;2.47;;
69417;SDS011;56610;48.872;2.400;2022-10-23T08:03:25;2.78;;;1.95;;
69417;SDS011;56610;48.872;2.400;2022-10-23T08:05:52;3.23;;;2.00;;
69417;SDS011;56610;48.872;2.400;2022-10-23T08:08:19;4.47;;;2.63;;
69417;SDS011;56610;48.872;2.400;2022-10-23T08:10:45;5.50;;;2.10;;
69417;SDS011;56610;48.872;2.400;2022-10-23T08:13:12;5.25;;;2.50;;
69417;SDS011;56610;48.872;2.400;2022-10-23T08:15:38;4.05;;;1.85;;
69417;SDS011;56610;48.872;2.400;2022-10-23T08:18:07;5.15;;;2.20;;
69417;SDS011;56610;48.872;2.400;2022-10-23T08:20:36;5.22;;;2.60;;
69417;SDS011;56610;48.872;2.400;2022-10-23T08:23:03;3.85;;;2.33;;
69417;SDS011;56610;48.872;2.400;2022-10-23T08:25:29;3.55;;;2.22;;
69417;SDS011;56610;48.872;2.400;2022-10-23T08:27:55;4.30;;;2.33;;
69417;SDS011;56610;48.872;2.400;2022-10-23T08:30:20;4.28;;;2.10;;
69417;SDS011;56610;48.872;2.400;2022-10-23T08:32:46;3.45;;;2.50;;
69417;SDS011;56610;48.872;2.400;2022-10-23T08:35:11;6.65;;;2.50;;
69417;SDS011;56610;48.872;2.400;2022-10-23T08:37:37;3.70;;;2.15;;
69417;SDS011;56610;48.872;2.400;2022-10-23T08:40:03;3.40;;;2.50;;
69417;SDS011;56610;48.872;2.400;2022-10-23T08:42:29;4.78;;;2.22;;
69417;SDS011;56610;48.872;2.400;2022-10-23T08:45:10;3.55;;;2.10;;
69417;SDS011;56610;48.872;2.400;2022-10-23T08:51:04;4.13;;;2.00;;
69417;SDS011;56610;48.872;2.400;2022-10-23T08:56:25;3.67;;;2.17;;
69417;SDS011;56610;48.872;2.400;2022-10-23T08:59:02;4.13;;;2.20;;
69417;SDS011;56610;48.872;2.400;2022-10-23T09:01:37;4.55;;;3.13;;
69417;SDS011;56610;48.872;2.400;2022-10-23T09:04:05;5.78;;;2.65;;
69417;SDS011;56610;48.872;2.400;2022-10-23T09:06:38;4.75;;;2.60;;
69417;SDS011;56610;48.872;2.400;2022-10-23T09:11:56;3.42;;;2.42;;
69417;SDS011;56610;48.872;2.400;2022-10-23T09:17:30;3.10;;;2.20;;
69417;SDS011;56610;48.872;2.400;2022-10-23T09:25:42;5.57;;;2.40;;
69417;SDS011;56610;48.872;2.400;2022-10-23T09:28:15;6.38;;;2.35;;
69417;SDS011;56610;48.872;2.400;2022-10-23T09:30:44;4.30;;;2.20;;
69417;SDS011;56610;48.872;2.400;2022-10-23T09:33:24;6.43;;;2.20;;
69417;SDS011;56610;48.872;2.400;2022-10-23T09:36:01;3.60;;;2.10;;
69417;SDS011;56610;48.872;2.400;2022-10-23T09:40:57;3.30;;;2.10;;
69417;SDS011;56610;48.872;2.400;2022-10-23T09:43:26;3.75;;;2.42;;
69417;SDS011;56610;48.872;2.400;2022-10-23T09:46:03;3.72;;;2.22;;
69417;SDS011;56610;48.872;2.400;2022-10-23T09:48:30;2.88;;;1.90;;
69417;SDS011;56610;48.872;2.400;2022-10-23T09:51:01;5.13;;;3.08;;
69417;SDS011;56610;48.872;2.400;2022-10-23T09:56:45;2.45;;;2.13;;
69417;SDS011;56610;48.872;2.400;2022-10-23T10:01:48;3.92;;;2.15;;
69417;SDS011;56610;48.872;2.400;2022-10-23T10:06:41;4.55;;;2.10;;
69417;SDS011;56610;48.872;2.400;2022-10-23T10:09:14;3.90;;;2.08;;
69417;SDS011;56610;48.872;2.400;2022-10-23T10:11:53;6.68;;;2.65;;
69417;SDS011;56610;48.872;2.400;2022-10-23T10:14:27;4.30;;;1.88;;
69417;SDS011;56610;48.872;2.400;2022-10-23T10:17:30;3.70;;;2.30;;
69417;SDS011;56610;48.872;2.400;2022-10-23T10:23:04;2.53;;;1.90;;
69417;SDS011;56610;48.872;2.400;2022-10-23T10:34:17;4.35;;;2.20;;
69417;SDS011;56610;48.872;2.400;2022-10-23T10:36:46;4.18;;;2.15;;
69417;SDS011;56610;48.872;2.400;2022-10-23T10:50:24;3.55;;;1.90;;
69417;SDS011;56610;48.872;2.400;2022-10-23T10:53:14;3.50;;;1.88;;
69417;SDS011;56610;48.872;2.400;2022-10-23T10:55:51;3.38;;;1.80;;
69417;SDS011;56610;48.872;2.400;2022-10-23T10:58:20;3.35;;;1.77;;
69417;SDS011;56610;48.872;2.400;2022-10-23T11:00:49;3.28;;;1.95;;
69417;SDS011;56610;48.872;2.400;2022-10-23T11:03:26;2.03;;;1.67;;
69417;SDS011;56610;48.872;2.400;2022-10-23T11:06:00;3.38;;;1.95;;
69417;SDS011;56610;48.872;2.400;2022-10-23T11:11:03;3.15;;;1.73;;
69417;SDS011;56610;48.872;2.400;2022-10-23T11:13:37;3.60;;;1.83;;
69417;SDS011;56610;48.872;2.400;2022-10-23T11:16:13;3.90;;;2.28;;
69417;SDS011;56610;48.872;2.400;2022-10-23T11:18:44;5.60;;;1.80;;
69417;SDS011;56610;48.872;2.400;2022-10-23T11:21:25;3.50;;;1.63;;
69417;SDS011;56610;48.872;2.400;2022-10-23T11:27:12;3.20;;;1.90;;
69417;SDS011;56610;48.872;2.400;2022-10-23T11:35:48;3.22;;;2.05;;
69417;SDS011;56610;48.872;2.400;2022-10-23T11:38:25;2.80;;;1.80;;
69417;SDS011;56610;48.872;2.400;2022-10-23T11:40:55;3.78;;;2.22;;
69417;SDS011;56610;48.872;2.400;2022-10-23T11:43:27;4.32;;;1.80;;
69417;SDS011;56610;48.872;2.400;2022-10-23T11:45:56;4.25;;;1.90;;
69417;SDS011;56610;48.872;2.400;2022-10-23T11:48:33;4.25;;;1.98;;
69417;SDS011;56610;48.872;2.400;2022-10-23T11:51:01;3.10;;;1.50;;
69417;SDS011;56610;48.872;2.400;2022-10-23T12:06:53;4.50;;;2.00;;
69417;SDS011;56610;48.872;2.400;2022-10-23T12:09:22;3.80;;;1.80;;
69417;SDS011;56610;48.872;2.400;2022-10-23T12:14:42;3.80;;;1.65;;
69417;SDS011;56610;48.872;2.400;2022-10-23T12:20:01;3.83;;;1.52;;
69417;SDS011;56610;48.872;2.400;2022-10-23T12:25:13;4.63;;;1.90;;
69417;SDS011;56610;48.872;2.400;2022-10-23T12:28:07;4.55;;;1.75;;
69417;SDS011;56610;48.872;2.400;2022-10-23T12:31:21;3.60;;;1.70;;
69417;SDS011;56610;48.872;2.400;2022-10-23T12:36:20;2.33;;;1.35;;
69417;SDS011;56610;48.872;2.400;2022-10-23T12:38:57;4.38;;;1.67;;
69417;SDS011;56610;48.872;2.400;2022-10-23T12:41:24;4.35;;;1.67;;
69417;SDS011;56610;48.872;2.400;2022-10-23T12:43:58;3.60;;;1.67;;
69417;SDS011;56610;48.872;2.400;2022-10-23T12:46:36;4.55;;;1.98;;
69417;SDS011;56610;48.872;2.400;2022-10-23T12:49:11;4.40;;;1.50;;
69417;SDS011;56610;48.872;2.400;2022-10-23T12:51:44;5.35;;;1.45;;
69417;SDS011;56610;48.872;2.400;2022-10-23T12:54:19;2.95;;;1.85;;
69417;SDS011;56610;48.872;2.400;2022-10-23T12:56:45;2.83;;;1.45;;
69417;SDS011;56610;48.872;2.400;2022-10-23T12:59:15;2.53;;;1.38;;
69417;SDS011;56610;48.872;2.400;2022-10-23T13:01:43;3.40;;;1.80;;
69417;SDS011;56610;48.872;2.400;2022-10-23T13:06:34;3.50;;;1.60;;
69417;SDS011;56610;48.872;2.400;2022-10-23T13:09:01;5.22;;;1.88;;
69417;SDS011;56610;48.872;2.400;2022-10-23T13:11:28;2.08;;;1.40;;
69417;SDS011;56610;48.872;2.400;2022-10-23T13:13:55;3.97;;;1.45;;
69417;SDS011;56610;48.872;2.400;2022-10-23T13:16:21;4.57;;;2.35;;
69417;SDS011;56610;48.872;2.400;2022-10-23T13:18:49;4.65;;;1.80;;
69417;SDS011;56610;48.872;2.400;2022-10-23T13:21:25;4.53;;;1.70;;
69417;SDS011;56610;48.872;2.400;2022-10-23T13:23:52;4.28;;;1.40;;
69417;SDS011;56610;48.872;2.400;2022-10-23T13:28:57;4.32;;;1.98;;
69417;SDS011;56610;48.872;2.400;2022-10-23T13:31:24;5.32;;;1.80;;
69417;SDS011;56610;48.872;2.400;2022-10-23T13:36:29;3.03;;;1.60;;
69417;SDS011;56610;48.872;2.400;2022-10-23T13:41:34;5.18;;;1.90;;
69417;SDS011;56610;48.872;2.400;2022-10-23T13:44:05;5.57;;;1.80;;
69417;SDS011;56610;48.872;2.400;2022-10-23T13:46:31;5.07;;;1.50;;
69417;SDS011;56610;48.872;2.400;2022-10-23T13:48:57;5.00;;;1.73;;
69417;SDS011;56610;48.872;2.400;2022-10-23T13:51:26;4.43;;;1.88;;
69417;SDS011;56610;48.872;2.400;2022-10-23T13:53:54;3.75;;;1.70;;
69417;SDS011;56610;48.872;2.400;2022-10-23T13:56:21;2.95;;;1.48;;
69417;SDS011;56610;48.872;2.400;2022-10-23T13:58:48;5.03;;;1.65;;
69417;SDS011;56610;48.872;2.400;2022-10-23T14:01:35;3.88;;;1.65;;
69417;SDS011;56610;48.872;2.400;2022-10-23T14:04:00;4.63;;;1.65;;
69417;SDS011;56610;48.872;2.400;2022-10-23T14:06:28;4.30;;;1.80;;
69417;SDS011;56610;48.872;2.400;2022-10-23T14:08:54;4.20;;;1.83;;
69417;SDS011;56610;48.872;2.400;2022-10-23T14:11:20;4.50;;;1.77;;
69417;SDS011;56610;48.872;2.400;2022-10-23T14:13:46;3.35;;;1.60;;
69417;SDS011;56610;48.872;2.400;2022-10-23T14:16:13;4.50;;;1.85;;
69417;SDS011;56610;48.872;2.400;2022-10-23T14:18:41;3.80;;;1.85;;
69417;SDS011;56610;48.872;2.400;2022-10-23T14:21:07;5.70;;;2.00;;
69417;SDS011;56610;48.872;2.400;2022-10-23T14:23:35;5.28;;;2.22;;
69417;SDS011;56610;48.872;2.400;2022-10-23T14:26:01;4.32;;;2.00;;
69417;SDS011;56610;48.872;2.400;2022-10-23T14:28:28;6.55;;;1.58;;
69417;SDS011;56610;48.872;2.400;2022-10-23T14:30:53;4.28;;;2.05;;
69417;SDS011;56610;48.872;2.400;2022-10-23T14:33:19;5.15;;;1.90;;
69417;SDS011;56610;48.872;2.400;2022-10-23T14:35:45;3.72;;;1.80;;
69417;SDS011;56610;48.872;2.400;2022-10-23T14:38:10;5.50;;;1.98;;
69417;SDS011;56610;48.872;2.400;2022-10-23T14:40:36;4.75;;;1.67;;
69417;SDS011;56610;48.872;2.400;2022-10-23T14:43:02;6.68;;;1.92;;
69417;SDS011;56610;48.872;2.400;2022-10-23T14:45:28;5.32;;;2.10;;
69417;SDS011;56610;48.872;2.400;2022-10-23T14:47:54;6.00;;;2.25;;
69417;SDS011;56610;48.872;2.400;2022-10-23T14:50:20;4.32;;;2.00;;
69417;SDS011;56610;48.872;2.400;2022-10-23T14:52:45;9.50;;;3.13;;
69417;SDS011;56610;48.872;2.400;2022-10-23T14:55:11;6.80;;;2.10;;
69417;SDS011;56610;48.872;2.400;2022-10-23T14:57:36;7.20;;;2.00;;
69417;SDS011;56610;48.872;2.400;2022-10-23T15:00:03;5.00;;;2.00;;
69417;SDS011;56610;48.872;2.400;2022-10-23T15:02:30;5.35;;;2.17;;
69417;SDS011;56610;48.872;2.400;2022-10-23T15:04:55;4.28;;;2.10;;
69417;SDS011;56610;48.872;2.400;2022-10-23T15:07:21;6.53;;;2.08;;
69417;SDS011;56610;48.872;2.400;2022-10-23T15:09:46;4.05;;;2.00;;
69417;SDS011;56610;48.872;2.400;2022-10-23T15:14:40;4.95;;;1.90;;
69417;SDS011;56610;48.872;2.400;2022-10-23T15:17:05;5.10;;;2.85;;
69417;SDS011;56610;48.872;2.400;2022-10-23T15:19:31;3.38;;;1.90;;
69417;SDS011;56610;48.872;2.400;2022-10-23T15:21:56;3.38;;;1.83;;
69417;SDS011;56610;48.872;2.400;2022-10-23T15:24:22;9.10;;;2.22;;
69417;SDS011;56610;48.872;2.400;2022-10-23T15:26:48;6.03;;;2.30;;
69417;SDS011;56610;48.872;2.400;2022-10-23T15:29:16;4.30;;;1.52;;
69417;SDS011;56610;48.872;2.400;2022-10-23T15:31:53;3.78;;;1.80;;
69417;SDS011;56610;48.872;2.400;2022-10-23T15:34:22;6.38;;;2.28;;
69417;SDS011;56610;48.872;2.400;2022-10-23T15:36:52;4.50;;;1.90;;
69417;SDS011;56610;48.872;2.400;2022-10-23T15:39:20;4.70;;;1.98;;
69417;SDS011;56610;48.872;2.400;2022-10-23T15:41:49;5.78;;;2.10;;
69417;SDS011;56610;48.872;2.400;2022-10-23T15:44:17;5.55;;;2.30;;
69417;SDS011;56610;48.872;2.400;2022-10-23T15:46:44;5.60;;;1.98;;
69417;SDS011;56610;48.872;2.400;2022-10-23T15:49:10;5.18;;;2.00;;
69417;SDS011;56610;48.872;2.400;2022-10-23T15:51:37;3.33;;;2.08;;
69417;SDS011;56610;48.872;2.400;2022-10-23T15:54:03;4.90;;;2.05;;
69417;SDS011;56610;48.872;2.400;2022-10-23T15:56:31;8.18;;;2.20;;
69417;SDS011;56610;48.872;2.400;2022-10-23T15:58:56;4.32;;;1.75;;
69417;SDS011;56610;48.872;2.400;2022-10-23T16:01:22;4.28;;;1.90;;
69417;SDS011;56610;48.872;2.400;2022-10-23T16:04:08;5.75;;;1.90;;
69417;SDS011;56610;48.872;2.400;2022-10-23T16:06:33;4.47;;;1.73;;
69417;SDS011;56610;48.872;2.400;2022-10-23T16:08:59;7.05;;;1.90;;
69417;SDS011;56610;48.872;2.400;2022-10-23T16:11:27;4.97;;;1.85;;
69417;SDS011;56610;48.872;2.400;2022-10-23T16:13:55;6.43;;;1.80;;
69417;SDS011;56610;48.872;2.400;2022-10-23T16:16:22;5.88;;;2.20;;
69417;SDS011;56610;48.872;2.400;2022-10-23T16:18:48;6.38;;;2.10;;
69417;SDS011;56610;48.872;2.400;2022-10-23T16:21:18;5.43;;;1.80;;
69417;SDS011;56610;48.872;2.400;2022-10-23T16:23:46;4.55;;;1.75;;
69417;SDS011;56610;48.872;2.400;2022-10-23T16:26:12;4.47;;;1.60;;
69417;SDS011;56610;48.872;2.400;2022-10-23T16:28:38;5.07;;;1.85;;
69417;SDS011;56610;48.872;2.400;2022-10-23T16:31:07;7.28;;;2.20;;
69417;SDS011;56610;48.872;2.400;2022-10-23T16:33:37;5.70;;;1.75;;
69417;SDS011;56610;48.872;2.400;2022-10-23T16:36:03;3.92;;;1.60;;
69417;SDS011;56610;48.872;2.400;2022-10-23T16:38:31;7.00;;;1.23;;
69417;SDS011;56610;48.872;2.400;2022-10-23T16:40:56;3.63;;;1.20;;
69417;SDS011;56610;48.872;2.400;2022-10-23T16:43:22;2.15;;;1.17;;
69417;SDS011;56610;48.872;2.400;2022-10-23T16:45:48;3.53;;;0.98;;
69417;SDS011;56610;48.872;2.400;2022-10-23T16:48:23;2.08;;;0.82;;
69417;SDS011;56610;48.872;2.400;2022-10-23T16:50:49;2.53;;;0.75;;
69417;SDS011;56610;48.872;2.400;2022-10-23T16:53:14;3.42;;;1.00;;
69417;SDS011;56610;48.872;2.400;2022-10-23T16:55:40;2.78;;;1.20;;
69417;SDS011;56610;48.872;2.400;2022-10-23T16:58:06;3.53;;;1.10;;
69417;SDS011;56610;48.872;2.400;2022-10-23T17:00:31;4.05;;;1.20;;
69417;SDS011;56610;48.872;2.400;2022-10-23T17:02:59;2.53;;;1.13;;
69417;SDS011;56610;48.872;2.400;2022-10-23T17:05:31;2.53;;;1.08;;
69417;SDS011;56610;48.872;2.400;2022-10-23T17:07:58;3.80;;;1.17;;
69417;SDS011;56610;48.872;2.400;2022-10-23T17:10:24;1.98;;;0.98;;
69417;SDS011;56610;48.872;2.400;2022-10-23T17:13:10;3.28;;;1.10;;
69417;SDS011;56610;48.872;2.400;2022-10-23T17:15:36;2.80;;;1.10;;
69417;SDS011;56610;48.872;2.400;2022-10-23T17:18:01;3.90;;;0.80;;
69417;SDS011;56610;48.872;2.400;2022-10-23T17:20:27;2.53;;;0.90;;
69417;SDS011;56610;48.872;2.400;2022-10-23T17:22:52;3.65;;;1.10;;
69417;SDS011;56610;48.872;2.400;2022-10-23T17:25:18;3.10;;;0.98;;